sensor_id;sensor_type;location;lat;lon;timestamp;temperature;humidity
22450;DHT22;11392;57.390;-2.468;2024-01-27T00:00:33;6.80;99.90
22450;DHT22;11392;57.390;-2.468;2024-01-27T00:03:00;6.80;99.90
22450;DHT22;11392;57.390;-2.468;2024-01-27T00:05:27;6.80;99.90
22450;DHT22;11392;57.390;-2.468;2024-01-27T00:07:57;6.90;99.90
22450;DHT22;11392;57.390;-2.468;2024-01-27T00:13:06;6.80;99.90
22450;DHT22;11392;57.390;-2.468;2024-01-27T00:15:33;6.90;99.90
22450;DHT22;11392;57.390;-2.468;2024-01-27T00:18:00;6.90;99.90
22450;DHT22;11392;57.390;-2.468;2024-01-27T00:20:28;6.90;99.90
22450;DHT22;11392;57.390;-2.468;2024-01-27T00:22:55;6.90;99.90
22450;DHT22;11392;57.390;-2.468;2024-01-27T00:25:22;7.00;99.90
22450;DHT22;11392;57.390;-2.468;2024-01-27T00:27:49;7.00;99.90
22450;DHT22;11392;57.390;-2.468;2024-01-27T00:30:16;6.90;99.90
22450;DHT22;11392;57.390;-2.468;2024-01-27T00:32:43;7.00;99.90
22450;DHT22;11392;57.390;-2.468;2024-01-27T00:35:11;7.10;99.90
22450;DHT22;11392;57.390;-2.468;2024-01-27T00:37:41;7.00;99.90
22450;DHT22;11392;57.390;-2.468;2024-01-27T00:40:09;7.00;99.90
22450;DHT22;11392;57.390;-2.468;2024-01-27T00:42:37;7.00;99.90
22450;DHT22;11392;57.390;-2.468;2024-01-27T00:45:05;7.10;99.90
22450;DHT22;11392;57.390;-2.468;2024-01-27T00:47:32;7.10;99.90
22450;DHT22;11392;57.390;-2.468;2024-01-27T00:50:00;7.10;99.90
22450;DHT22;11392;57.390;-2.468;2024-01-27T00:52:27;7.10;99.90
22450;DHT22;11392;57.390;-2.468;2024-01-27T00:54:54;7.20;99.90
22450;DHT22;11392;57.390;-2.468;2024-01-27T00:57:21;7.10;99.90
22450;DHT22;11392;57.390;-2.468;2024-01-27T00:59:48;7.10;99.90
22450;DHT22;11392;57.390;-2.468;2024-01-27T01:02:15;7.10;99.90
22450;DHT22;11392;57.390;-2.468;2024-01-27T01:04:42;7.10;99.90
22450;DHT22;11392;57.390;-2.468;2024-01-27T01:07:09;7.00;99.90
22450;DHT22;11392;57.390;-2.468;2024-01-27T01:09:36;7.10;99.90
22450;DHT22;11392;57.390;-2.468;2024-01-27T01:12:03;7.20;99.90
22450;DHT22;11392;57.390;-2.468;2024-01-27T01:14:31;7.20;99.90
22450;DHT22;11392;57.390;-2.468;2024-01-27T01:16:58;7.10;99.90
22450;DHT22;11392;57.390;-2.468;2024-01-27T01:19:25;7.20;99.90
22450;DHT22;11392;57.390;-2.468;2024-01-27T01:21:53;7.20;99.90
22450;DHT22;11392;57.390;-2.468;2024-01-27T01:24:20;7.20;99.90
22450;DHT22;11392;57.390;-2.468;2024-01-27T01:26:47;7.10;99.90
22450;DHT22;11392;57.390;-2.468;2024-01-27T01:29:14;7.10;99.90
22450;DHT22;11392;57.390;-2.468;2024-01-27T01:31:42;7.10;99.90
22450;DHT22;11392;57.390;-2.468;2024-01-27T01:34:10;7.20;99.90
22450;DHT22;11392;57.390;-2.468;2024-01-27T01:36:37;7.20;99.90
22450;DHT22;11392;57.390;-2.468;2024-01-27T01:39:04;7.10;99.90
22450;DHT22;11392;57.390;-2.468;2024-01-27T01:41:31;7.10;99.90
22450;DHT22;11392;57.390;-2.468;2024-01-27T01:43:59;7.10;99.90
22450;DHT22;11392;57.390;-2.468;2024-01-27T01:46:26;7.10;99.90
22450;DHT22;11392;57.390;-2.468;2024-01-27T01:48:53;7.00;99.90
22450;DHT22;11392;57.390;-2.468;2024-01-27T01:51:22;7.00;99.90
22450;DHT22;11392;57.390;-2.468;2024-01-27T01:53:49;6.90;99.90
22450;DHT22;11392;57.390;-2.468;2024-01-27T01:56:17;6.90;99.90
22450;DHT22;11392;57.390;-2.468;2024-01-27T01:58:44;7.00;99.90
22450;DHT22;11392;57.390;-2.468;2024-01-27T02:01:12;6.90;99.90
22450;DHT22;11392;57.390;-2.468;2024-01-27T02:03:39;6.90;99.90
22450;DHT22;11392;57.390;-2.468;2024-01-27T02:06:06;7.00;99.90
22450;DHT22;11392;57.390;-2.468;2024-01-27T02:08:34;7.00;99.90
22450;DHT22;11392;57.390;-2.468;2024-01-27T02:11:01;6.90;99.90
22450;DHT22;11392;57.390;-2.468;2024-01-27T02:13:29;6.90;99.90
22450;DHT22;11392;57.390;-2.468;2024-01-27T02:15:56;6.90;99.90
22450;DHT22;11392;57.390;-2.468;2024-01-27T02:18:23;6.90;99.90
22450;DHT22;11392;57.390;-2.468;2024-01-27T02:20:51;6.80;99.90
22450;DHT22;11392;57.390;-2.468;2024-01-27T02:23:18;6.70;99.90
22450;DHT22;11392;57.390;-2.468;2024-01-27T02:25:45;6.50;99.90
22450;DHT22;11392;57.390;-2.468;2024-01-27T02:28:12;6.40;99.90
22450;DHT22;11392;57.390;-2.468;2024-01-27T02:30:40;6.30;99.90
22450;DHT22;11392;57.390;-2.468;2024-01-27T02:33:07;6.20;99.90
22450;DHT22;11392;57.390;-2.468;2024-01-27T02:35:34;6.20;99.90
22450;DHT22;11392;57.390;-2.468;2024-01-27T02:38:01;6.10;99.90
22450;DHT22;11392;57.390;-2.468;2024-01-27T02:40:28;6.20;99.90
22450;DHT22;11392;57.390;-2.468;2024-01-27T02:50:41;6.30;99.90
22450;DHT22;11392;57.390;-2.468;2024-01-27T02:53:08;6.40;99.90
22450;DHT22;11392;57.390;-2.468;2024-01-27T02:55:35;6.30;99.90
22450;DHT22;11392;57.390;-2.468;2024-01-27T02:58:03;6.30;99.90
22450;DHT22;11392;57.390;-2.468;2024-01-27T03:00:30;6.40;99.90
22450;DHT22;11392;57.390;-2.468;2024-01-27T03:02:57;6.30;99.90
22450;DHT22;11392;57.390;-2.468;2024-01-27T03:05:25;6.40;99.90
22450;DHT22;11392;57.390;-2.468;2024-01-27T03:07:53;6.40;99.90
22450;DHT22;11392;57.390;-2.468;2024-01-27T03:10:20;6.40;99.90
22450;DHT22;11392;57.390;-2.468;2024-01-27T03:12:48;6.30;99.90
22450;DHT22;11392;57.390;-2.468;2024-01-27T03:15:15;6.30;99.90
22450;DHT22;11392;57.390;-2.468;2024-01-27T03:17:42;6.30;99.90
22450;DHT22;11392;57.390;-2.468;2024-01-27T03:20:09;6.30;99.90
22450;DHT22;11392;57.390;-2.468;2024-01-27T03:22:37;6.30;99.90
22450;DHT22;11392;57.390;-2.468;2024-01-27T03:25:04;6.20;99.90
22450;DHT22;11392;57.390;-2.468;2024-01-27T03:27:31;6.20;99.90
22450;DHT22;11392;57.390;-2.468;2024-01-27T03:30:02;6.20;99.90
22450;DHT22;11392;57.390;-2.468;2024-01-27T03:32:30;6.20;99.90
22450;DHT22;11392;57.390;-2.468;2024-01-27T03:34:59;6.20;99.90
22450;DHT22;11392;57.390;-2.468;2024-01-27T03:37:27;6.20;99.90
22450;DHT22;11392;57.390;-2.468;2024-01-27T03:39:54;6.20;99.90
22450;DHT22;11392;57.390;-2.468;2024-01-27T03:42:21;6.10;99.90
22450;DHT22;11392;57.390;-2.468;2024-01-27T03:44:48;6.10;99.90
22450;DHT22;11392;57.390;-2.468;2024-01-27T03:47:15;6.00;99.90
22450;DHT22;11392;57.390;-2.468;2024-01-27T03:49:42;6.00;99.90
22450;DHT22;11392;57.390;-2.468;2024-01-27T03:52:10;6.00;99.90
22450;DHT22;11392;57.390;-2.468;2024-01-27T03:54:40;5.90;99.90
22450;DHT22;11392;57.390;-2.468;2024-01-27T03:57:07;5.90;99.90
22450;DHT22;11392;57.390;-2.468;2024-01-27T03:59:34;5.80;99.90
22450;DHT22;11392;57.390;-2.468;2024-01-27T04:02:01;5.70;99.90
22450;DHT22;11392;57.390;-2.468;2024-01-27T04:04:28;5.50;99.90
22450;DHT22;11392;57.390;-2.468;2024-01-27T04:06:56;5.50;99.90
22450;DHT22;11392;57.390;-2.468;2024-01-27T04:09:23;5.50;99.90
22450;DHT22;11392;57.390;-2.468;2024-01-27T04:11:51;5.50;99.90
22450;DHT22;11392;57.390;-2.468;2024-01-27T04:14:18;5.40;99.90
22450;DHT22;11392;57.390;-2.468;2024-01-27T04:16:45;5.40;99.90
22450;DHT22;11392;57.390;-2.468;2024-01-27T04:19:12;5.40;99.90
22450;DHT22;11392;57.390;-2.468;2024-01-27T04:21:39;5.30;99.90
22450;DHT22;11392;57.390;-2.468;2024-01-27T04:24:06;5.40;99.90
22450;DHT22;11392;57.390;-2.468;2024-01-27T04:26:34;5.50;99.90
22450;DHT22;11392;57.390;-2.468;2024-01-27T04:29:01;5.50;99.90
22450;DHT22;11392;57.390;-2.468;2024-01-27T04:31:28;5.70;99.90
22450;DHT22;11392;57.390;-2.468;2024-01-27T04:33:55;5.80;99.90
22450;DHT22;11392;57.390;-2.468;2024-01-27T04:36:28;5.80;99.90
22450;DHT22;11392;57.390;-2.468;2024-01-27T04:38:56;5.90;99.90
22450;DHT22;11392;57.390;-2.468;2024-01-27T04:41:23;6.00;99.90
22450;DHT22;11392;57.390;-2.468;2024-01-27T04:43:50;6.00;99.90
22450;DHT22;11392;57.390;-2.468;2024-01-27T04:46:17;6.10;99.90
22450;DHT22;11392;57.390;-2.468;2024-01-27T04:48:44;6.20;99.90
22450;DHT22;11392;57.390;-2.468;2024-01-27T04:51:12;6.20;99.90
22450;DHT22;11392;57.390;-2.468;2024-01-27T04:53:39;6.30;99.90
22450;DHT22;11392;57.390;-2.468;2024-01-27T04:56:06;6.30;99.90
22450;DHT22;11392;57.390;-2.468;2024-01-27T04:58:35;6.40;99.90
22450;DHT22;11392;57.390;-2.468;2024-01-27T05:01:02;6.40;99.90
22450;DHT22;11392;57.390;-2.468;2024-01-27T05:03:29;6.50;99.90
22450;DHT22;11392;57.390;-2.468;2024-01-27T05:05:56;6.50;99.90
22450;DHT22;11392;57.390;-2.468;2024-01-27T05:08:24;6.60;99.90
22450;DHT22;11392;57.390;-2.468;2024-01-27T05:10:51;6.60;99.90
22450;DHT22;11392;57.390;-2.468;2024-01-27T05:13:20;6.70;99.90
22450;DHT22;11392;57.390;-2.468;2024-01-27T05:15:48;6.70;99.90
22450;DHT22;11392;57.390;-2.468;2024-01-27T05:18:15;6.70;99.90
22450;DHT22;11392;57.390;-2.468;2024-01-27T05:20:43;6.70;99.90
22450;DHT22;11392;57.390;-2.468;2024-01-27T05:23:10;6.70;99.90
22450;DHT22;11392;57.390;-2.468;2024-01-27T05:25:37;6.70;99.90
22450;DHT22;11392;57.390;-2.468;2024-01-27T05:28:05;6.70;99.90
22450;DHT22;11392;57.390;-2.468;2024-01-27T05:30:32;6.70;99.90
22450;DHT22;11392;57.390;-2.468;2024-01-27T05:33:00;6.70;99.90
22450;DHT22;11392;57.390;-2.468;2024-01-27T05:35:27;6.60;99.90
22450;DHT22;11392;57.390;-2.468;2024-01-27T05:37:54;6.60;99.90
22450;DHT22;11392;57.390;-2.468;2024-01-27T05:40:21;6.60;99.90
22450;DHT22;11392;57.390;-2.468;2024-01-27T05:42:48;6.60;99.90
22450;DHT22;11392;57.390;-2.468;2024-01-27T05:45:16;6.60;99.90
22450;DHT22;11392;57.390;-2.468;2024-01-27T05:47:43;6.60;99.90
22450;DHT22;11392;57.390;-2.468;2024-01-27T05:50:10;6.70;99.90
22450;DHT22;11392;57.390;-2.468;2024-01-27T05:52:37;6.70;99.90
22450;DHT22;11392;57.390;-2.468;2024-01-27T05:55:04;6.70;99.90
22450;DHT22;11392;57.390;-2.468;2024-01-27T05:57:33;6.80;99.90
22450;DHT22;11392;57.390;-2.468;2024-01-27T06:00:01;6.70;99.90
22450;DHT22;11392;57.390;-2.468;2024-01-27T06:02:28;6.80;99.90
22450;DHT22;11392;57.390;-2.468;2024-01-27T06:04:55;6.70;99.90
22450;DHT22;11392;57.390;-2.468;2024-01-27T06:07:22;6.70;99.90
22450;DHT22;11392;57.390;-2.468;2024-01-27T06:09:50;6.70;99.90
22450;DHT22;11392;57.390;-2.468;2024-01-27T06:12:17;6.70;99.90
22450;DHT22;11392;57.390;-2.468;2024-01-27T06:14:44;6.70;99.90
22450;DHT22;11392;57.390;-2.468;2024-01-27T06:17:11;6.70;99.90
22450;DHT22;11392;57.390;-2.468;2024-01-27T06:19:41;6.70;99.90
22450;DHT22;11392;57.390;-2.468;2024-01-27T06:22:08;6.70;99.90
22450;DHT22;11392;57.390;-2.468;2024-01-27T06:24:42;6.80;99.90
22450;DHT22;11392;57.390;-2.468;2024-01-27T06:27:10;6.80;99.90
22450;DHT22;11392;57.390;-2.468;2024-01-27T06:29:37;6.80;99.90
22450;DHT22;11392;57.390;-2.468;2024-01-27T06:32:04;6.90;99.90
22450;DHT22;11392;57.390;-2.468;2024-01-27T06:34:33;6.90;99.90
22450;DHT22;11392;57.390;-2.468;2024-01-27T06:37:00;6.90;99.90
22450;DHT22;11392;57.390;-2.468;2024-01-27T06:39:28;7.00;99.90
22450;DHT22;11392;57.390;-2.468;2024-01-27T06:41:56;7.00;99.90
22450;DHT22;11392;57.390;-2.468;2024-01-27T06:44:23;7.10;99.90
22450;DHT22;11392;57.390;-2.468;2024-01-27T06:46:50;7.10;99.90
22450;DHT22;11392;57.390;-2.468;2024-01-27T06:49:17;7.20;99.90
22450;DHT22;11392;57.390;-2.468;2024-01-27T06:51:45;7.20;99.90
22450;DHT22;11392;57.390;-2.468;2024-01-27T06:54:12;7.10;99.90
22450;DHT22;11392;57.390;-2.468;2024-01-27T06:56:40;7.10;99.90
22450;DHT22;11392;57.390;-2.468;2024-01-27T06:59:07;7.00;99.90
22450;DHT22;11392;57.390;-2.468;2024-01-27T07:01:34;7.00;99.90
22450;DHT22;11392;57.390;-2.468;2024-01-27T07:04:01;6.90;99.90
22450;DHT22;11392;57.390;-2.468;2024-01-27T07:06:28;6.90;99.90
22450;DHT22;11392;57.390;-2.468;2024-01-27T07:08:55;6.80;99.90
22450;DHT22;11392;57.390;-2.468;2024-01-27T07:11:22;6.70;99.90
22450;DHT22;11392;57.390;-2.468;2024-01-27T07:13:49;6.70;99.90
22450;DHT22;11392;57.390;-2.468;2024-01-27T07:16:16;6.60;99.90
22450;DHT22;11392;57.390;-2.468;2024-01-27T07:18:43;6.60;99.90
22450;DHT22;11392;57.390;-2.468;2024-01-27T07:21:15;6.60;99.90
22450;DHT22;11392;57.390;-2.468;2024-01-27T07:23:44;6.60;99.90
22450;DHT22;11392;57.390;-2.468;2024-01-27T07:26:11;6.50;99.90
22450;DHT22;11392;57.390;-2.468;2024-01-27T07:28:38;6.50;99.90
22450;DHT22;11392;57.390;-2.468;2024-01-27T07:31:06;6.50;99.90
22450;DHT22;11392;57.390;-2.468;2024-01-27T07:33:34;6.50;99.90
22450;DHT22;11392;57.390;-2.468;2024-01-27T07:36:01;6.50;99.90
22450;DHT22;11392;57.390;-2.468;2024-01-27T07:38:28;6.60;99.90
22450;DHT22;11392;57.390;-2.468;2024-01-27T07:40:55;6.80;99.90
22450;DHT22;11392;57.390;-2.468;2024-01-27T07:43:24;6.80;99.90
22450;DHT22;11392;57.390;-2.468;2024-01-27T07:45:52;6.90;99.90
22450;DHT22;11392;57.390;-2.468;2024-01-27T07:48:20;6.80;99.90
22450;DHT22;11392;57.390;-2.468;2024-01-27T07:50:47;6.90;99.90
22450;DHT22;11392;57.390;-2.468;2024-01-27T07:53:16;6.80;99.90
22450;DHT22;11392;57.390;-2.468;2024-01-27T07:55:43;6.90;99.90
22450;DHT22;11392;57.390;-2.468;2024-01-27T07:58:11;6.80;99.90
22450;DHT22;11392;57.390;-2.468;2024-01-27T08:00:38;6.80;99.90
22450;DHT22;11392;57.390;-2.468;2024-01-27T08:03:05;6.80;99.90
22450;DHT22;11392;57.390;-2.468;2024-01-27T08:05:33;6.80;99.90
22450;DHT22;11392;57.390;-2.468;2024-01-27T08:08:00;6.70;99.90
22450;DHT22;11392;57.390;-2.468;2024-01-27T08:10:27;6.80;99.90
22450;DHT22;11392;57.390;-2.468;2024-01-27T08:12:54;6.80;99.90
22450;DHT22;11392;57.390;-2.468;2024-01-27T08:15:21;6.80;99.90
22450;DHT22;11392;57.390;-2.468;2024-01-27T08:17:48;6.90;99.90
22450;DHT22;11392;57.390;-2.468;2024-01-27T08:20:15;6.80;99.90
22450;DHT22;11392;57.390;-2.468;2024-01-27T08:22:42;6.90;99.90
22450;DHT22;11392;57.390;-2.468;2024-01-27T08:25:09;6.90;99.90
22450;DHT22;11392;57.390;-2.468;2024-01-27T08:27:37;6.90;99.90
22450;DHT22;11392;57.390;-2.468;2024-01-27T08:30:04;6.90;99.90
22450;DHT22;11392;57.390;-2.468;2024-01-27T08:32:33;7.00;99.90
22450;DHT22;11392;57.390;-2.468;2024-01-27T08:35:01;7.00;99.90
22450;DHT22;11392;57.390;-2.468;2024-01-27T08:37:29;7.00;99.90
22450;DHT22;11392;57.390;-2.468;2024-01-27T08:39:56;7.10;99.90
22450;DHT22;11392;57.390;-2.468;2024-01-27T08:42:23;7.10;99.90
22450;DHT22;11392;57.390;-2.468;2024-01-27T08:44:50;7.10;99.90
22450;DHT22;11392;57.390;-2.468;2024-01-27T08:47:18;7.10;99.90
22450;DHT22;11392;57.390;-2.468;2024-01-27T08:49:45;7.00;99.90
22450;DHT22;11392;57.390;-2.468;2024-01-27T08:52:12;7.10;99.90
22450;DHT22;11392;57.390;-2.468;2024-01-27T08:54:40;7.10;99.90
22450;DHT22;11392;57.390;-2.468;2024-01-27T08:57:08;7.10;99.90
22450;DHT22;11392;57.390;-2.468;2024-01-27T08:59:35;7.10;99.90
22450;DHT22;11392;57.390;-2.468;2024-01-27T09:02:02;7.10;99.90
22450;DHT22;11392;57.390;-2.468;2024-01-27T09:04:30;7.20;99.90
22450;DHT22;11392;57.390;-2.468;2024-01-27T09:06:57;7.20;99.90
22450;DHT22;11392;57.390;-2.468;2024-01-27T09:09:24;7.20;99.90
22450;DHT22;11392;57.390;-2.468;2024-01-27T09:11:51;7.10;99.90
22450;DHT22;11392;57.390;-2.468;2024-01-27T09:14:19;7.20;99.90
22450;DHT22;11392;57.390;-2.468;2024-01-27T09:16:46;7.20;99.90
22450;DHT22;11392;57.390;-2.468;2024-01-27T09:19:13;7.30;99.90
22450;DHT22;11392;57.390;-2.468;2024-01-27T09:21:41;7.50;99.90
22450;DHT22;11392;57.390;-2.468;2024-01-27T09:24:08;7.60;99.90
22450;DHT22;11392;57.390;-2.468;2024-01-27T09:26:37;7.60;99.90
22450;DHT22;11392;57.390;-2.468;2024-01-27T09:29:06;7.70;99.90
22450;DHT22;11392;57.390;-2.468;2024-01-27T09:31:34;7.70;99.90
22450;DHT22;11392;57.390;-2.468;2024-01-27T09:34:01;7.80;99.90
22450;DHT22;11392;57.390;-2.468;2024-01-27T09:36:29;7.80;99.90
22450;DHT22;11392;57.390;-2.468;2024-01-27T09:38:56;7.70;99.90
22450;DHT22;11392;57.390;-2.468;2024-01-27T09:41:24;7.70;99.90
22450;DHT22;11392;57.390;-2.468;2024-01-27T09:43:54;7.90;99.90
22450;DHT22;11392;57.390;-2.468;2024-01-27T09:46:23;7.90;99.90
22450;DHT22;11392;57.390;-2.468;2024-01-27T09:48:50;8.00;99.90
22450;DHT22;11392;57.390;-2.468;2024-01-27T09:51:18;8.00;99.90
22450;DHT22;11392;57.390;-2.468;2024-01-27T09:53:46;8.10;99.90
22450;DHT22;11392;57.390;-2.468;2024-01-27T09:56:14;8.00;99.90
22450;DHT22;11392;57.390;-2.468;2024-01-27T09:58:45;8.10;99.90
22450;DHT22;11392;57.390;-2.468;2024-01-27T10:01:14;8.20;99.90
22450;DHT22;11392;57.390;-2.468;2024-01-27T10:03:43;8.10;99.90
22450;DHT22;11392;57.390;-2.468;2024-01-27T10:06:10;8.10;99.90
22450;DHT22;11392;57.390;-2.468;2024-01-27T10:08:38;8.10;99.90
22450;DHT22;11392;57.390;-2.468;2024-01-27T10:11:09;8.30;99.90
22450;DHT22;11392;57.390;-2.468;2024-01-27T10:13:37;8.30;99.90
22450;DHT22;11392;57.390;-2.468;2024-01-27T10:16:05;8.40;99.90
22450;DHT22;11392;57.390;-2.468;2024-01-27T10:18:34;8.50;99.90
22450;DHT22;11392;57.390;-2.468;2024-01-27T10:21:17;8.40;99.90
22450;DHT22;11392;57.390;-2.468;2024-01-27T10:23:46;8.50;99.90
22450;DHT22;11392;57.390;-2.468;2024-01-27T10:26:13;8.60;99.90
22450;DHT22;11392;57.390;-2.468;2024-01-27T10:28:41;8.60;99.90
22450;DHT22;11392;57.390;-2.468;2024-01-27T10:31:12;8.60;99.90
22450;DHT22;11392;57.390;-2.468;2024-01-27T10:33:39;8.60;99.90
22450;DHT22;11392;57.390;-2.468;2024-01-27T10:36:07;8.60;99.90
22450;DHT22;11392;57.390;-2.468;2024-01-27T10:41:07;8.60;99.90
22450;DHT22;11392;57.390;-2.468;2024-01-27T10:43:36;8.60;99.90
22450;DHT22;11392;57.390;-2.468;2024-01-27T10:46:08;8.60;99.90
22450;DHT22;11392;57.390;-2.468;2024-01-27T10:48:35;8.70;99.90
22450;DHT22;11392;57.390;-2.468;2024-01-27T10:51:10;8.70;99.90
22450;DHT22;11392;57.390;-2.468;2024-01-27T10:53:38;8.80;99.90
22450;DHT22;11392;57.390;-2.468;2024-01-27T10:56:07;8.90;99.90
22450;DHT22;11392;57.390;-2.468;2024-01-27T10:58:37;9.00;99.90
22450;DHT22;11392;57.390;-2.468;2024-01-27T11:01:11;9.10;99.90
22450;DHT22;11392;57.390;-2.468;2024-01-27T11:03:39;9.10;99.90
22450;DHT22;11392;57.390;-2.468;2024-01-27T11:06:08;9.30;99.90
22450;DHT22;11392;57.390;-2.468;2024-01-27T11:08:36;9.30;99.90
22450;DHT22;11392;57.390;-2.468;2024-01-27T11:11:09;9.40;99.90
22450;DHT22;11392;57.390;-2.468;2024-01-27T11:13:37;9.40;99.90
22450;DHT22;11392;57.390;-2.468;2024-01-27T11:16:04;9.50;99.90
22450;DHT22;11392;57.390;-2.468;2024-01-27T11:18:32;9.50;99.90
22450;DHT22;11392;57.390;-2.468;2024-01-27T11:21:01;9.50;99.90
22450;DHT22;11392;57.390;-2.468;2024-01-27T11:23:35;9.50;99.90
22450;DHT22;11392;57.390;-2.468;2024-01-27T11:26:06;9.50;99.90
22450;DHT22;11392;57.390;-2.468;2024-01-27T11:28:33;9.50;99.90
22450;DHT22;11392;57.390;-2.468;2024-01-27T11:31:07;9.50;99.90
22450;DHT22;11392;57.390;-2.468;2024-01-27T11:33:46;9.50;99.90
22450;DHT22;11392;57.390;-2.468;2024-01-27T11:36:32;9.50;99.90
22450;DHT22;11392;57.390;-2.468;2024-01-27T11:39:00;9.60;99.90
22450;DHT22;11392;57.390;-2.468;2024-01-27T11:41:30;9.80;99.90
22450;DHT22;11392;57.390;-2.468;2024-01-27T11:43:58;10.00;99.90
22450;DHT22;11392;57.390;-2.468;2024-01-27T11:46:29;10.30;99.90
22450;DHT22;11392;57.390;-2.468;2024-01-27T11:48:56;10.30;99.90
22450;DHT22;11392;57.390;-2.468;2024-01-27T11:51:24;10.50;99.90
22450;DHT22;11392;57.390;-2.468;2024-01-27T11:53:52;10.60;99.90
22450;DHT22;11392;57.390;-2.468;2024-01-27T11:56:19;10.80;99.90
22450;DHT22;11392;57.390;-2.468;2024-01-27T11:58:49;11.00;99.90
22450;DHT22;11392;57.390;-2.468;2024-01-27T12:01:17;11.10;99.90
22450;DHT22;11392;57.390;-2.468;2024-01-27T12:03:44;11.20;99.90
22450;DHT22;11392;57.390;-2.468;2024-01-27T12:06:12;11.30;99.90
22450;DHT22;11392;57.390;-2.468;2024-01-27T12:08:42;11.40;99.90
22450;DHT22;11392;57.390;-2.468;2024-01-27T12:11:16;11.50;99.90
22450;DHT22;11392;57.390;-2.468;2024-01-27T12:13:51;11.60;99.90
22450;DHT22;11392;57.390;-2.468;2024-01-27T12:16:19;11.70;99.90
22450;DHT22;11392;57.390;-2.468;2024-01-27T12:18:46;11.70;99.90
22450;DHT22;11392;57.390;-2.468;2024-01-27T12:21:19;11.80;99.90
22450;DHT22;11392;57.390;-2.468;2024-01-27T12:23:53;11.70;99.90
22450;DHT22;11392;57.390;-2.468;2024-01-27T12:26:22;11.70;99.90
22450;DHT22;11392;57.390;-2.468;2024-01-27T12:28:50;11.80;99.90
22450;DHT22;11392;57.390;-2.468;2024-01-27T12:31:18;11.80;99.90
22450;DHT22;11392;57.390;-2.468;2024-01-27T12:33:52;11.70;99.90
22450;DHT22;11392;57.390;-2.468;2024-01-27T12:36:21;11.70;99.90
22450;DHT22;11392;57.390;-2.468;2024-01-27T12:38:59;11.70;99.90
22450;DHT22;11392;57.390;-2.468;2024-01-27T12:41:28;11.70;99.90
22450;DHT22;11392;57.390;-2.468;2024-01-27T12:43:56;11.70;99.90
22450;DHT22;11392;57.390;-2.468;2024-01-27T12:46:25;11.50;99.90
22450;DHT22;11392;57.390;-2.468;2024-01-27T12:48:53;11.30;99.90
22450;DHT22;11392;57.390;-2.468;2024-01-27T12:51:21;11.10;99.90
22450;DHT22;11392;57.390;-2.468;2024-01-27T12:53:48;10.90;99.90
22450;DHT22;11392;57.390;-2.468;2024-01-27T12:56:15;10.80;99.90
22450;DHT22;11392;57.390;-2.468;2024-01-27T12:58:43;10.70;99.90
22450;DHT22;11392;57.390;-2.468;2024-01-27T13:01:10;10.70;99.90
22450;DHT22;11392;57.390;-2.468;2024-01-27T13:03:37;10.50;99.90
22450;DHT22;11392;57.390;-2.468;2024-01-27T13:06:10;10.50;99.90
22450;DHT22;11392;57.390;-2.468;2024-01-27T13:08:38;10.30;99.90
22450;DHT22;11392;57.390;-2.468;2024-01-27T13:11:05;10.30;99.90
22450;DHT22;11392;57.390;-2.468;2024-01-27T13:13:33;10.40;99.90
22450;DHT22;11392;57.390;-2.468;2024-01-27T13:16:00;10.60;99.90
22450;DHT22;11392;57.390;-2.468;2024-01-27T13:18:27;11.10;99.90
22450;DHT22;11392;57.390;-2.468;2024-01-27T13:20:55;11.40;99.90
22450;DHT22;11392;57.390;-2.468;2024-01-27T13:23:22;11.30;99.90
22450;DHT22;11392;57.390;-2.468;2024-01-27T13:25:49;11.40;99.90
22450;DHT22;11392;57.390;-2.468;2024-01-27T13:28:37;11.40;99.90
22450;DHT22;11392;57.390;-2.468;2024-01-27T13:31:04;11.70;99.90
22450;DHT22;11392;57.390;-2.468;2024-01-27T13:33:32;12.00;99.90
22450;DHT22;11392;57.390;-2.468;2024-01-27T13:36:00;11.80;99.90
22450;DHT22;11392;57.390;-2.468;2024-01-27T13:38:27;11.90;99.90
22450;DHT22;11392;57.390;-2.468;2024-01-27T13:40:54;11.80;99.90
22450;DHT22;11392;57.390;-2.468;2024-01-27T13:43:22;11.80;99.90
22450;DHT22;11392;57.390;-2.468;2024-01-27T13:45:49;11.70;99.90
22450;DHT22;11392;57.390;-2.468;2024-01-27T13:48:18;11.60;99.90
22450;DHT22;11392;57.390;-2.468;2024-01-27T13:50:46;11.50;99.90
22450;DHT22;11392;57.390;-2.468;2024-01-27T13:53:13;11.60;99.90
22450;DHT22;11392;57.390;-2.468;2024-01-27T13:55:40;11.90;99.90
22450;DHT22;11392;57.390;-2.468;2024-01-27T13:58:10;12.00;99.90
22450;DHT22;11392;57.390;-2.468;2024-01-27T14:00:37;12.30;99.90
22450;DHT22;11392;57.390;-2.468;2024-01-27T14:03:05;12.50;99.90
22450;DHT22;11392;57.390;-2.468;2024-01-27T14:05:32;12.70;99.90
22450;DHT22;11392;57.390;-2.468;2024-01-27T14:07:59;12.90;99.90
22450;DHT22;11392;57.390;-2.468;2024-01-27T14:10:27;13.00;99.90
22450;DHT22;11392;57.390;-2.468;2024-01-27T14:12:54;13.00;99.90
22450;DHT22;11392;57.390;-2.468;2024-01-27T14:15:22;12.90;99.90
22450;DHT22;11392;57.390;-2.468;2024-01-27T14:17:49;12.90;99.90
22450;DHT22;11392;57.390;-2.468;2024-01-27T14:20:16;12.90;99.90
22450;DHT22;11392;57.390;-2.468;2024-01-27T14:22:44;12.90;99.90
22450;DHT22;11392;57.390;-2.468;2024-01-27T14:25:12;12.70;99.90
22450;DHT22;11392;57.390;-2.468;2024-01-27T14:27:39;12.50;99.90
22450;DHT22;11392;57.390;-2.468;2024-01-27T14:30:06;12.30;99.90
22450;DHT22;11392;57.390;-2.468;2024-01-27T14:32:34;11.90;99.90
22450;DHT22;11392;57.390;-2.468;2024-01-27T14:35:01;11.90;99.90
22450;DHT22;11392;57.390;-2.468;2024-01-27T14:37:33;12.00;99.90
22450;DHT22;11392;57.390;-2.468;2024-01-27T14:40:00;11.90;99.90
22450;DHT22;11392;57.390;-2.468;2024-01-27T14:42:27;11.80;99.90
22450;DHT22;11392;57.390;-2.468;2024-01-27T14:44:57;11.60;99.90
22450;DHT22;11392;57.390;-2.468;2024-01-27T14:47:25;11.60;99.90
22450;DHT22;11392;57.390;-2.468;2024-01-27T14:49:52;11.80;99.90
22450;DHT22;11392;57.390;-2.468;2024-01-27T14:52:20;11.80;99.90
22450;DHT22;11392;57.390;-2.468;2024-01-27T14:54:49;11.50;99.90
22450;DHT22;11392;57.390;-2.468;2024-01-27T14:57:16;11.20;99.90
22450;DHT22;11392;57.390;-2.468;2024-01-27T14:59:43;10.90;99.90
22450;DHT22;11392;57.390;-2.468;2024-01-27T15:02:10;11.00;99.90
22450;DHT22;11392;57.390;-2.468;2024-01-27T15:04:37;11.00;99.90
22450;DHT22;11392;57.390;-2.468;2024-01-27T15:07:04;11.00;99.90
22450;DHT22;11392;57.390;-2.468;2024-01-27T15:09:31;11.00;99.90
22450;DHT22;11392;57.390;-2.468;2024-01-27T15:11:58;11.10;99.90
22450;DHT22;11392;57.390;-2.468;2024-01-27T15:14:25;11.10;99.90
22450;DHT22;11392;57.390;-2.468;2024-01-27T15:16:52;11.10;99.90
22450;DHT22;11392;57.390;-2.468;2024-01-27T15:19:19;11.20;99.90
22450;DHT22;11392;57.390;-2.468;2024-01-27T15:21:47;11.30;99.90
22450;DHT22;11392;57.390;-2.468;2024-01-27T15:24:14;11.50;99.90
22450;DHT22;11392;57.390;-2.468;2024-01-27T15:26:41;11.40;99.90
22450;DHT22;11392;57.390;-2.468;2024-01-27T15:29:09;11.30;99.90
22450;DHT22;11392;57.390;-2.468;2024-01-27T15:31:36;11.10;99.90
22450;DHT22;11392;57.390;-2.468;2024-01-27T15:34:03;11.00;99.90
22450;DHT22;11392;57.390;-2.468;2024-01-27T15:36:33;10.90;99.90
22450;DHT22;11392;57.390;-2.468;2024-01-27T15:39:04;10.90;99.90
22450;DHT22;11392;57.390;-2.468;2024-01-27T15:41:31;10.80;99.90
22450;DHT22;11392;57.390;-2.468;2024-01-27T15:43:59;10.70;99.90